createdAt,value
2019-03-01T00:00:58.228Z,96101.77
2019-03-01T00:03:47.592Z,96094.86
2019-03-01T00:06:42.394Z,96093.33
2019-03-01T00:09:40.792Z,96094.69
2019-03-01T00:13:18.929Z,96069.34
2019-03-01T00:16:57.753Z,96076.36
2019-03-01T00:20:15.509Z,96079.94
2019-03-01T00:23:30.689Z,96085.91
2019-03-01T00:27:03.161Z,96094.41
2019-03-01T00:30:22.908Z,96097.28
2019-03-01T00:33:40.999Z,96098.39
2019-03-01T00:37:07.405Z,96090.52
2019-03-01T00:40:16.767Z,96082.59
2019-03-01T00:43:54.748Z,96082.31
2019-03-01T00:46:42.681Z,96088.34
2019-03-01T00:49:32.878Z,96090.14
2019-03-01T00:52:21.123Z,96098.42
2019-03-01T00:55:09.413Z,96086.19
2019-03-01T00:57:57.730Z,96079.59
2019-03-01T01:00:48.361Z,96076.72
2019-03-01T01:03:36.523Z,96070.33
2019-03-01T01:06:24.486Z,96062.88
2019-03-01T01:09:12.590Z,96053.84
2019-03-01T01:12:00.774Z,96036.88
2019-03-01T01:14:48.859Z,96049.64
2019-03-01T01:17:36.778Z,96042.04
2019-03-01T01:20:24.691Z,96037.60
2019-03-01T01:23:12.384Z,96040.41
2019-03-01T01:26:00.271Z,96027.16
2019-03-01T01:28:48.063Z,96019.28
2019-03-01T01:31:35.970Z,96023.58
2019-03-01T01:34:23.971Z,96007.43
2019-03-01T01:37:11.920Z,96001.70
2019-03-01T01:39:59.900Z,96002.52
2019-03-01T01:42:47.982Z,96000.67
2019-03-01T01:45:35.942Z,96004.08
2019-03-01T01:48:23.844Z,95995.27
2019-03-01T01:51:11.508Z,95981.00
2019-03-01T01:53:59.860Z,95988.56
2019-03-01T01:56:47.719Z,95990.95
2019-03-01T01:59:35.881Z,95981.07
2019-03-01T02:02:23.705Z,95978.03
2019-03-01T02:05:12.055Z,95977.89
2019-03-01T02:07:59.725Z,95971.67
2019-03-01T02:10:47.966Z,95973.99
2019-03-01T02:13:36.229Z,95966.91
2019-03-01T02:16:24.473Z,95965.07
2019-03-01T02:19:12.501Z,95959.99
2019-03-01T02:22:00.330Z,95958.16
2019-03-01T02:24:48.244Z,95967.39
2019-03-01T02:27:36.141Z,95963.72
2019-03-01T02:30:25.941Z,95955.13
2019-03-01T02:33:13.711Z,95944.61
2019-03-01T02:36:01.553Z,95942.30
2019-03-01T02:38:49.699Z,95933.78
2019-03-01T02:41:37.799Z,95928.08
2019-03-01T02:44:25.732Z,95926.78
2019-03-01T02:47:13.882Z,95917.88
2019-03-01T02:50:01.494Z,95918.12
2019-03-01T02:52:49.551Z,95909.12
2019-03-01T02:55:37.634Z,95901.16
2019-03-01T02:58:25.799Z,95890.95
2019-03-01T03:01:13.900Z,95896.61
2019-03-01T03:04:02.211Z,95896.22
2019-03-01T03:07:05.163Z,95899.23
2019-03-01T03:09:53.475Z,95888.88
2019-03-01T03:12:41.818Z,95894.45
2019-03-01T03:15:38.186Z,95891.64
2019-03-01T03:18:26.632Z,95887.77
2019-03-01T03:21:14.303Z,95894.35
2019-03-01T03:24:02.718Z,95885.68
2019-03-01T03:26:50.936Z,95887.03
2019-03-01T03:29:38.855Z,95876.26
2019-03-01T03:32:26.910Z,95884.63
2019-03-01T03:35:15.150Z,95881.53
2019-03-01T03:38:03.122Z,95885.89
2019-03-01T03:40:51.065Z,95883.66
2019-03-01T03:43:39.310Z,95883.70
2019-03-01T03:46:27.863Z,95872.88
2019-03-01T03:49:15.777Z,95874.53
2019-03-01T03:52:03.819Z,95883.31
2019-03-01T03:54:51.568Z,95888.48
2019-03-01T03:57:40.006Z,95878.69
2019-03-01T04:00:27.568Z,95880.46
2019-03-01T04:03:15.805Z,95865.03
2019-03-01T04:06:03.728Z,95885.56
2019-03-01T04:08:51.984Z,95855.57
2019-03-01T04:11:39.898Z,95859.23
2019-03-01T04:14:27.896Z,95850.86
2019-03-01T04:17:15.668Z,95835.66
2019-03-01T04:20:03.680Z,95850.06
2019-03-01T04:22:51.254Z,95840.58
2019-03-01T04:25:39.325Z,95855.00
2019-03-01T04:28:27.244Z,95839.47
2019-03-01T04:31:15.367Z,95839.73
2019-03-01T04:34:03.219Z,95843.15
2019-03-01T04:36:51.265Z,95829.14
2019-03-01T04:39:39.548Z,95818.17
2019-03-01T04:42:27.945Z,95837.25
2019-03-01T04:45:15.902Z,95820.73
2019-03-01T04:48:04.151Z,95828.75
2019-03-01T04:50:51.978Z,95828.91
2019-03-01T04:53:39.951Z,95815.30
2019-03-01T04:56:28.089Z,95798.05
2019-03-01T04:59:15.853Z,95797.50
2019-03-01T05:02:03.728Z,95785.33
2019-03-01T05:04:52.059Z,95756.27
2019-03-01T05:07:40.295Z,95773.48
2019-03-01T05:10:27.889Z,95778.23
2019-03-01T05:13:16.027Z,95786.92
2019-03-01T05:16:03.992Z,95781.97
2019-03-01T05:18:51.950Z,95782.92
2019-03-01T05:21:39.825Z,95773.94
2019-03-01T05:24:28.042Z,95766.22
2019-03-01T05:27:16.297Z,95772.25
2019-03-01T05:30:04.771Z,95751.58
2019-03-01T05:32:52.952Z,95756.93
2019-03-01T05:35:41.095Z,95737.81
2019-03-01T05:38:29.038Z,95743.62
2019-03-01T05:41:17.310Z,95738.20
2019-03-01T05:44:05.336Z,95732.50
2019-03-01T05:46:53.279Z,95734.48
2019-03-01T05:49:41.331Z,95726.07
2019-03-01T05:52:29.200Z,95733.77
2019-03-01T05:55:17.063Z,95732.41
2019-03-01T05:58:32.973Z,95729.16
2019-03-01T06:01:27.773Z,95719.60
2019-03-01T06:04:34.992Z,95704.63
2019-03-01T06:08:25.805Z,95715.44
2019-03-01T06:11:57.249Z,95718.15
2019-03-01T06:15:35.412Z,95706.27
2019-03-01T06:19:06.816Z,95694.58
2019-03-01T06:22:29.456Z,95691.19
2019-03-01T06:25:42.933Z,95684.92
2019-03-01T06:28:58.784Z,95685.69
2019-03-01T06:32:36.924Z,95686.72
2019-03-01T06:36:01.787Z,95687.67
2019-03-01T06:39:56.500Z,95688.98
2019-03-01T06:42:52.389Z,95699.08
2019-03-01T06:46:18.811Z,95703.87
2019-03-01T06:49:15.543Z,95703.85
2019-03-01T06:52:03.654Z,95700.33
2019-03-01T06:54:51.529Z,95709.55
2019-03-01T06:57:38.992Z,95719.27
2019-03-01T07:00:28.477Z,95713.95
2019-03-01T07:03:16.592Z,95710.75
2019-03-01T07:06:04.575Z,95706.02
2019-03-01T07:08:52.674Z,95714.97
2019-03-01T07:11:40.650Z,95725.45
2019-03-01T07:14:28.981Z,95722.26
2019-03-01T07:17:17.233Z,95728.16
2019-03-01T07:20:05.361Z,95728.02
2019-03-01T07:22:53.318Z,95731.35
2019-03-01T07:25:43.468Z,95736.31
2019-03-01T07:28:31.652Z,95745.88
2019-03-01T07:31:19.494Z,95742.84
2019-03-01T07:34:07.447Z,95749.55
2019-03-01T07:36:55.572Z,95749.13
2019-03-01T07:39:43.728Z,95753.65
2019-03-01T07:42:31.778Z,95770.91
2019-03-01T07:45:20.593Z,95770.13
2019-03-01T07:48:08.619Z,95773.66
2019-03-01T07:50:56.549Z,95778.45
2019-03-01T07:53:44.309Z,95783.20
2019-03-01T07:56:32.311Z,95794.65
2019-03-01T07:59:20.466Z,95795.92
2019-03-01T08:02:08.653Z,95793.50
2019-03-01T08:04:56.665Z,95803.96
2019-03-01T08:07:44.619Z,95809.48
2019-03-01T08:10:32.572Z,95804.06
2019-03-01T08:13:20.872Z,95806.27
2019-03-01T08:16:09.078Z,95811.02
2019-03-01T08:18:57.329Z,95802.78
2019-03-01T08:21:45.908Z,95807.09
2019-03-01T08:24:34.837Z,95809.77
2019-03-01T08:27:22.594Z,95816.53
2019-03-01T08:30:13.533Z,95801.77
2019-03-01T08:33:02.717Z,95815.56
2019-03-01T08:35:50.868Z,95820.70
2019-03-01T08:38:38.864Z,95817.16
2019-03-01T08:41:26.579Z,95817.63
2019-03-01T08:44:14.375Z,95817.08
2019-03-01T08:47:02.212Z,95822.97
2019-03-01T08:49:50.436Z,95811.75
2019-03-01T08:52:40.485Z,95823.37
2019-03-01T08:55:27.944Z,95826.45
2019-03-01T08:58:15.935Z,95819.14
2019-03-01T09:01:08.365Z,95822.98
2019-03-01T09:03:58.546Z,95820.30
2019-03-01T09:06:47.732Z,95811.94
2019-03-01T09:09:35.683Z,95811.87
2019-03-01T09:12:23.647Z,95821.79
2019-03-01T09:15:13.250Z,95814.20
2019-03-01T09:18:00.934Z,95814.45
2019-03-01T09:20:49.197Z,95819.92
2019-03-01T09:23:36.806Z,95812.06
2019-03-01T09:26:24.641Z,95810.88
2019-03-01T09:29:18.308Z,95815.78
2019-03-01T09:32:02.496Z,95810.66
2019-03-01T09:34:53.922Z,95811.73
2019-03-01T09:37:41.614Z,95810.86
2019-03-01T09:40:29.754Z,95803.78
2019-03-01T09:43:17.525Z,95798.39
2019-03-01T09:46:05.781Z,95803.05
2019-03-01T09:48:53.515Z,95795.80
2019-03-01T09:51:43.715Z,95795.44
2019-03-01T09:54:31.169Z,95794.59
2019-03-01T09:57:20.490Z,95796.29
2019-03-01T10:00:10.591Z,95788.69
2019-03-01T10:02:58.850Z,95785.41
2019-03-01T10:05:46.686Z,95784.80
2019-03-01T10:08:34.612Z,95791.11
2019-03-01T10:11:22.624Z,95787.44
2019-03-01T10:14:10.748Z,95784.53
2019-03-01T10:16:58.605Z,95783.32
2019-03-01T10:19:46.865Z,95779.96
2019-03-01T10:22:34.805Z,95784.30
2019-03-01T10:25:22.802Z,95785.28
2019-03-01T10:28:10.669Z,95774.36
2019-03-01T10:30:58.820Z,95783.03
2019-03-01T10:33:46.984Z,95781.27
2019-03-01T10:36:34.759Z,95784.39
2019-03-01T10:39:22.649Z,95787.05
2019-03-01T10:42:10.799Z,95795.34
2019-03-01T10:44:59.097Z,95807.13
2019-03-01T10:47:47.151Z,95783.11
2019-03-01T10:50:34.668Z,95787.20
2019-03-01T10:53:22.715Z,95793.63
2019-03-01T10:56:11.057Z,95801.04
2019-03-01T10:58:59.108Z,95794.60
2019-03-01T11:01:47.078Z,95802.79
2019-03-01T11:04:34.955Z,95792.65
2019-03-01T11:07:22.925Z,95798.54
2019-03-01T11:10:12.781Z,95795.15
2019-03-01T11:13:00.742Z,95791.45
2019-03-01T11:15:48.682Z,95789.13
2019-03-01T11:18:36.876Z,95790.77
2019-03-01T11:21:25.247Z,95780.05
2019-03-01T11:24:13.028Z,95790.80
2019-03-01T11:27:01.127Z,95791.09
2019-03-01T11:29:49.357Z,95789.44
2019-03-01T11:32:37.221Z,95790.95
2019-03-01T11:35:25.339Z,95792.39
2019-03-01T11:38:13.424Z,95796.70
2019-03-01T11:41:01.821Z,95796.45
2019-03-01T11:43:49.996Z,95793.47
2019-03-01T11:46:38.544Z,95801.44
2019-03-01T11:49:26.683Z,95801.57
2019-03-01T11:52:14.599Z,95803.52
2019-03-01T11:55:02.537Z,95802.92
2019-03-01T11:57:50.488Z,95794.53
2019-03-01T12:00:38.388Z,95797.01
2019-03-01T12:03:26.230Z,95798.45
2019-03-01T12:06:14.085Z,95801.92
2019-03-01T12:09:02.683Z,95794.78
2019-03-01T12:11:50.556Z,95798.60
2019-03-01T12:14:38.705Z,95791.63
2019-03-01T12:17:26.825Z,95795.64
2019-03-01T12:20:16.673Z,95791.14
2019-03-01T12:23:04.829Z,95793.84
2019-03-01T12:25:53.045Z,95788.14
2019-03-01T12:28:41.195Z,95792.61
2019-03-01T12:31:29.319Z,95792.90
2019-03-01T12:34:17.374Z,95782.15
2019-03-01T12:37:05.035Z,95783.38
2019-03-01T12:39:52.952Z,95773.30
2019-03-01T12:42:40.567Z,95774.23
2019-03-01T12:45:28.789Z,95774.72
2019-03-01T12:48:16.711Z,95767.62
2019-03-01T12:51:04.630Z,95770.48
2019-03-01T12:53:52.572Z,95779.31
2019-03-01T12:56:40.627Z,95773.76
2019-03-01T12:59:28.465Z,95783.89
2019-03-01T13:02:16.449Z,95791.06
2019-03-01T13:05:04.626Z,95788.97
2019-03-01T13:07:54.455Z,95789.62
2019-03-01T13:10:42.509Z,95788.18
2019-03-01T13:13:30.254Z,95788.48
2019-03-01T13:16:18.509Z,95790.08
2019-03-01T13:19:06.700Z,95786.50
2019-03-01T13:21:54.570Z,95791.37
2019-03-01T13:24:42.771Z,95783.73
2019-03-01T13:27:30.694Z,95782.77
2019-03-01T13:30:20.182Z,95780.94
2019-03-01T13:33:08.535Z,95776.48
2019-03-01T13:35:59.917Z,95786.74
2019-03-01T13:38:47.073Z,95782.75
2019-03-01T13:41:37.205Z,95784.09
2019-03-01T13:44:24.769Z,95780.85
2019-03-01T13:47:12.840Z,95780.79
2019-03-01T13:50:05.697Z,95781.13
2019-03-01T13:52:50.864Z,95783.89
2019-03-01T13:55:38.711Z,95791.52
2019-03-01T13:58:27.661Z,95786.31
2019-03-01T14:01:16.131Z,95790.81
2019-03-01T14:04:04.216Z,95788.25
2019-03-01T14:06:52.492Z,95790.32
2019-03-01T14:09:40.460Z,95802.58
2019-03-01T14:12:28.591Z,95805.83
2019-03-01T14:15:17.158Z,95812.21
2019-03-01T14:18:04.749Z,95809.63
2019-03-01T14:20:54.345Z,95819.73
2019-03-01T14:23:42.552Z,95819.70
2019-03-01T14:26:30.825Z,95820.27
2019-03-01T14:29:18.527Z,95824.65
2019-03-01T14:32:06.545Z,95817.81
2019-03-01T14:34:54.775Z,95824.20
2019-03-01T14:37:42.754Z,95819.94
2019-03-01T14:40:30.436Z,95829.02
2019-03-01T14:43:20.176Z,95822.92
2019-03-01T14:46:08.282Z,95831.81
2019-03-01T14:48:56.313Z,95839.58
2019-03-01T14:51:46.893Z,95847.28
2019-03-01T14:54:33.509Z,95854.36
2019-03-01T14:57:31.305Z,95856.73
2019-03-01T15:00:35.117Z,95853.94
2019-03-01T15:03:33.079Z,95861.52
2019-03-01T15:06:21.100Z,95862.47
2019-03-01T15:09:09.832Z,95859.06
2019-03-01T15:11:57.735Z,95856.03
2019-03-01T15:14:49.671Z,95855.84
2019-03-01T15:17:35.139Z,95860.63
2019-03-01T15:20:24.312Z,95857.25
2019-03-01T15:23:12.514Z,95873.36
2019-03-01T15:26:00.527Z,95861.55
2019-03-01T15:28:55.776Z,95877.19
2019-03-01T15:31:43.848Z,95878.00
2019-03-01T15:34:31.993Z,95870.30
2019-03-01T15:37:20.034Z,95877.31
2019-03-01T15:40:08.340Z,95875.81
2019-03-01T15:42:56.764Z,95874.95
2019-03-01T15:45:44.326Z,95879.89
2019-03-01T15:48:34.471Z,95881.36
2019-03-01T15:51:21.713Z,95888.25
2019-03-01T15:54:09.950Z,95887.92
2019-03-01T15:56:57.929Z,95891.95
2019-03-01T15:59:47.832Z,95886.48
2019-03-01T16:02:35.859Z,95888.85
2019-03-01T16:05:23.743Z,95898.02
2019-03-01T16:08:11.777Z,95900.22
2019-03-01T16:10:59.786Z,95904.45
2019-03-01T16:13:49.309Z,95910.32
2019-03-01T16:16:37.510Z,95907.39
2019-03-01T16:19:25.592Z,95916.16
2019-03-01T16:22:15.432Z,95919.84
2019-03-01T16:25:03.845Z,95924.68
2019-03-01T16:27:54.292Z,95927.98
2019-03-01T16:30:42.015Z,95935.38
2019-03-01T16:33:30.089Z,95932.17
2019-03-01T16:36:26.523Z,95937.81
2019-03-01T16:39:14.031Z,95946.52
2019-03-01T16:42:02.199Z,95948.36
2019-03-01T16:44:50.518Z,95944.07
2019-03-01T16:47:42.123Z,95941.73
2019-03-01T16:50:27.894Z,95939.41
2019-03-01T16:53:15.804Z,95941.48
2019-03-01T16:56:03.801Z,95950.49
2019-03-01T16:58:51.816Z,95956.28
2019-03-01T17:01:40.692Z,95956.96
2019-03-01T17:04:29.130Z,95962.72
2019-03-01T17:07:16.997Z,95961.98
2019-03-01T17:10:05.150Z,95967.27
2019-03-01T17:12:53.348Z,95972.47
2019-03-01T17:15:41.150Z,95966.27
2019-03-01T17:18:29.048Z,95966.41
2019-03-01T17:21:17.227Z,95967.60
2019-03-01T17:24:05.512Z,95977.16
2019-03-01T17:26:53.344Z,95971.58
2019-03-01T17:29:43.507Z,95979.23
2019-03-01T17:32:34.245Z,95987.22
2019-03-01T17:35:21.203Z,95989.73
2019-03-01T17:38:09.089Z,95995.91
2019-03-01T17:40:56.772Z,95996.98
2019-03-01T17:43:44.890Z,95998.51
2019-03-01T17:46:33.829Z,95996.95
2019-03-01T17:49:21.859Z,96001.69
2019-03-01T17:52:09.523Z,96004.98
2019-03-01T17:55:01.294Z,96007.67
2019-03-01T17:57:46.977Z,96014.73
2019-03-01T18:00:36.475Z,96008.52
2019-03-01T18:03:24.481Z,96018.22
2019-03-01T18:06:16.420Z,96017.38
2019-03-01T18:09:02.312Z,96018.41
2019-03-01T18:11:50.503Z,96016.42
2019-03-01T18:14:38.955Z,96027.12
2019-03-01T18:17:26.947Z,96022.80
2019-03-01T18:20:15.085Z,96027.97
2019-03-01T18:23:03.176Z,96028.23
2019-03-01T18:25:51.988Z,96035.68
2019-03-01T18:28:40.270Z,96036.43
2019-03-01T18:31:34.303Z,96041.45
2019-03-01T18:34:17.653Z,96046.32
2019-03-01T18:37:19.036Z,96047.80
2019-03-01T18:39:54.818Z,96053.84
2019-03-01T18:42:43.934Z,96046.00
2019-03-01T18:45:31.866Z,96047.20
2019-03-01T18:48:20.026Z,96049.14
2019-03-01T18:51:08.141Z,96051.50
2019-03-01T18:53:56.090Z,96054.88
2019-03-01T18:56:44.291Z,96051.84
2019-03-01T18:59:32.485Z,96054.54
2019-03-01T19:02:20.670Z,96055.48
2019-03-01T19:05:08.922Z,96051.50
2019-03-01T19:07:56.768Z,96054.95
2019-03-01T19:10:53.735Z,96051.84
2019-03-01T19:13:34.714Z,96061.94
2019-03-01T19:16:25.341Z,96061.98
2019-03-01T19:19:13.277Z,96065.14
2019-03-01T19:22:01.223Z,96066.67
2019-03-01T19:24:50.173Z,96072.73
2019-03-01T19:27:39.241Z,96085.01
2019-03-01T19:30:27.414Z,96077.84
2019-03-01T19:33:17.275Z,96079.05
2019-03-01T19:36:05.206Z,96082.02
2019-03-01T19:38:53.145Z,96076.53
2019-03-01T19:41:40.988Z,96067.34
2019-03-01T19:44:29.777Z,96065.49
2019-03-01T19:47:17.525Z,96071.66
2019-03-01T19:50:06.800Z,96073.72
2019-03-01T19:52:54.918Z,96070.75
2019-03-01T19:55:46.885Z,96076.67
2019-03-01T19:58:44.218Z,96081.66
2019-03-01T20:01:32.916Z,96085.14
2019-03-01T20:04:21.846Z,96081.91
2019-03-01T20:07:16.113Z,96082.89
2019-03-01T20:10:05.391Z,96088.85
2019-03-01T20:12:54.517Z,96088.09
2019-03-01T20:15:47.452Z,96087.34
2019-03-01T20:18:41.749Z,96093.05
2019-03-01T20:21:35.326Z,96084.76
2019-03-01T20:24:24.578Z,96093.23
2019-03-01T20:27:13.492Z,96090.39
2019-03-01T20:30:05.189Z,96098.75
2019-03-01T20:32:53.288Z,96093.48
2019-03-01T20:35:41.304Z,96093.43
2019-03-01T20:38:29.309Z,96098.23
2019-03-01T20:41:17.446Z,96098.50
2019-03-01T20:44:05.510Z,96100.14
2019-03-01T20:46:54.214Z,96114.31
2019-03-01T20:49:42.043Z,96110.63
2019-03-01T20:52:29.907Z,96115.77
2019-03-01T20:55:18.363Z,96118.72
2019-03-01T20:58:06.664Z,96121.03
2019-03-01T21:00:54.538Z,96118.41
2019-03-01T21:03:42.648Z,96121.81
2019-03-01T21:06:30.873Z,96109.27
2019-03-01T21:09:20.192Z,96115.63
2019-03-01T21:12:08.033Z,96132.35
2019-03-01T21:14:58.668Z,96132.15
2019-03-01T21:17:45.340Z,96137.80
2019-03-01T21:20:33.104Z,96146.25
2019-03-01T21:23:21.198Z,96147.61
2019-03-01T21:26:12.111Z,96151.48
2019-03-01T21:28:58.863Z,96150.13
2019-03-01T21:31:46.914Z,96154.26
2019-03-01T21:34:38.333Z,96151.87
2019-03-01T21:37:24.699Z,96156.48
2019-03-01T21:40:12.753Z,96152.63
2019-03-01T21:43:01.214Z,96148.45
2019-03-01T21:45:49.196Z,96153.73
2019-03-01T21:48:36.930Z,96154.50
2019-03-01T21:51:24.707Z,96155.84
2019-03-01T21:54:12.583Z,96153.78
2019-03-01T21:57:02.234Z,96154.42
2019-03-01T21:59:52.526Z,96142.44
2019-03-01T22:02:39.911Z,96148.27
2019-03-01T22:05:27.962Z,96142.43
2019-03-01T22:08:16.289Z,96148.27
2019-03-01T22:11:04.661Z,96147.35
2019-03-01T22:13:52.444Z,96147.13
2019-03-01T22:16:40.114Z,96156.94
2019-03-01T22:19:30.497Z,96152.06
2019-03-01T22:22:17.528Z,96155.77
2019-03-01T22:25:07.963Z,96156.23
2019-03-01T22:27:57.707Z,96160.58
2019-03-01T22:30:45.556Z,96149.69
2019-03-01T22:33:33.521Z,96154.83
2019-03-01T22:36:21.504Z,96152.20
2019-03-01T22:39:09.500Z,96164.37
2019-03-01T22:41:57.652Z,96159.97
2019-03-01T22:44:45.987Z,96169.40
2019-03-01T22:47:36.075Z,96169.20
2019-03-01T22:50:24.083Z,96158.62
2019-03-01T22:53:12.008Z,96158.36
2019-03-01T22:56:00.066Z,96159.81
2019-03-01T22:58:48.104Z,96152.88
2019-03-01T23:01:48.734Z,96158.05
2019-03-01T23:04:36.895Z,96161.64
2019-03-01T23:07:26.363Z,96156.70
2019-03-01T23:10:15.070Z,96159.43
2019-03-01T23:13:03.258Z,96155.77
2019-03-01T23:15:51.220Z,96156.67
2019-03-01T23:18:40.552Z,96154.71
2019-03-01T23:21:28.642Z,96143.19
2019-03-01T23:24:16.956Z,96151.34
2019-03-01T23:27:04.950Z,96155.61
2019-03-01T23:29:54.336Z,96144.98
2019-03-01T23:32:42.896Z,96148.41
2019-03-01T23:35:30.517Z,96148.12
2019-03-01T23:38:18.479Z,96154.64
2019-03-01T23:41:07.768Z,96156.35
2019-03-01T23:43:55.922Z,96146.48
2019-03-01T23:46:43.509Z,96156.61
2019-03-01T23:49:31.849Z,96162.02
2019-03-01T23:52:22.890Z,96163.27
2019-03-01T23:55:09.710Z,96158.47
2019-03-01T23:58:05.779Z,96154.83
